Time;durP1;ratioP1;P1;durP2;ratioP2;P2;SDS_P1;SDS_P2;PMS_P1;PMS_P2;Temp;Humidity;BMP_temperature;BMP_pressure;BME280_temperature;BME280_humidity;BME280_pressure;Samples;Min_cycle;Max_cycle;Signal;HPM_P1;HPM_P2
2020/12/06 00:01:29;;;;;;;64.47;31.23;;;;;;;;;;5009485;28;20265;-77
2020/12/06 00:03:55;;;;;;;70.93;32.90;;;;;;;;;;5009543;28;20292;-78
2020/12/06 00:06:21;;;;;;;69.00;34.20;;;;;;;;;;5010313;28;20277;-78
2020/12/06 00:08:51;;;;;;;67.50;32.07;;;;;;;;;;5009334;28;20273;-77
2020/12/06 00:11:18;;;;;;;60.73;31.07;;;;;;;;;;5009775;28;20323;-78
2020/12/06 00:13:45;;;;;;;64.73;31.23;;;;;;;;;;5010437;28;20277;-78
2020/12/06 00:16:13;;;;;;;65.03;32.63;;;;;;;;;;5004411;28;20273;-77
2020/12/06 00:18:43;;;;;;;60.30;31.50;;;;;;;;;;5009727;28;20339;-77
2020/12/06 00:21:12;;;;;;;59.67;30.30;;;;;;;;;;5010688;28;20830;-78
2020/12/06 00:23:38;;;;;;;55.00;29.47;;;;;;;;;;5008654;28;20265;-78
2020/12/06 00:26:05;;;;;;;71.03;33.67;;;;;;;;;;5015141;28;20732;-78
2020/12/06 00:28:31;;;;;;;71.37;33.20;;;;;;;;;;5012459;28;20284;-77
2020/12/06 00:30:57;;;;;;;70.90;33.60;;;;;;;;;;5009755;28;20775;-78
2020/12/06 00:33:23;;;;;;;64.53;31.00;;;;;;;;;;5009705;28;20264;-77
2020/12/06 00:35:49;;;;;;;65.40;30.60;;;;;;;;;;5009321;28;21104;-78
2020/12/06 00:38:15;;;;;;;61.50;30.77;;;;;;;;;;5009206;28;20368;-76
2020/12/06 00:40:41;;;;;;;67.57;33.53;;;;;;;;;;5008732;28;20265;-78
2020/12/06 00:43:07;;;;;;;63.87;34.03;;;;;;;;;;5010388;28;20381;-77
2020/12/06 00:45:33;;;;;;;66.30;32.43;;;;;;;;;;5008700;28;20269;-77
2020/12/06 00:47:59;;;;;;;57.03;29.60;;;;;;;;;;5009648;28;20287;-77
2020/12/06 00:50:26;;;;;;;66.17;32.43;;;;;;;;;;5007512;28;20322;-78
2020/12/06 00:52:52;;;;;;;71.47;32.17;;;;;;;;;;4997940;28;20616;-78
2020/12/06 00:55:18;;;;;;;67.27;33.73;;;;;;;;;;5014266;28;20334;-78
2020/12/06 00:57:44;;;;;;;69.17;32.23;;;;;;;;;;5014062;28;20311;-78
2020/12/06 01:00:11;;;;;;;73.90;35.50;;;;;;;;;;5007817;28;20406;-77
2020/12/06 01:02:37;;;;;;;70.17;33.70;;;;;;;;;;5012795;28;20269;-78
2020/12/06 01:05:04;;;;;;;77.93;31.37;;;;;;;;;;5013645;28;20261;-77
2020/12/06 01:07:41;;;;;;;80.60;34.53;;;;;;;;;;5013765;28;20265;-78
2020/12/06 01:10:08;;;;;;;87.10;34.53;;;;;;;;;;5011542;28;20274;-77
2020/12/06 01:12:35;;;;;;;78.07;34.83;;;;;;;;;;5013572;28;20277;-77
2020/12/06 01:15:06;;;;;;;77.23;34.27;;;;;;;;;;5012233;28;20718;-76
2020/12/06 01:17:33;;;;;;;85.90;36.10;;;;;;;;;;5008379;28;20285;-77
2020/12/06 01:19:59;;;;;;;84.03;36.67;;;;;;;;;;5016259;28;20276;-78
2020/12/06 01:22:25;;;;;;;82.73;37.40;;;;;;;;;;5013223;28;20261;-77
2020/12/06 01:24:51;;;;;;;82.33;36.00;;;;;;;;;;5013242;28;20589;-76
2020/12/06 01:27:18;;;;;;;85.20;35.97;;;;;;;;;;5011236;28;20363;-76
2020/12/06 01:29:45;;;;;;;79.33;35.10;;;;;;;;;;5011929;28;20272;-78
2020/12/06 01:32:11;;;;;;;92.60;40.10;;;;;;;;;;5005301;28;20755;-77
2020/12/06 01:34:37;;;;;;;96.93;38.73;;;;;;;;;;5011297;28;20312;-77
2020/12/06 01:37:06;;;;;;;96.27;41.20;;;;;;;;;;5014240;28;21172;-78
2020/12/06 01:39:32;;;;;;;93.13;38.63;;;;;;;;;;5009329;28;20296;-77
2020/12/06 01:41:58;;;;;;;91.13;38.63;;;;;;;;;;5012375;28;20276;-77
2020/12/06 01:44:29;;;;;;;104.53;40.23;;;;;;;;;;5011662;28;20277;-77
2020/12/06 01:46:55;;;;;;;96.17;41.13;;;;;;;;;;5011062;28;20269;-78
2020/12/06 01:49:26;;;;;;;104.53;41.10;;;;;;;;;;5011533;28;20288;-77
2020/12/06 01:51:55;;;;;;;91.50;39.43;;;;;;;;;;4997675;28;20462;-76
2020/12/06 01:54:21;;;;;;;99.43;41.50;;;;;;;;;;5008079;28;20277;-77
2020/12/06 01:56:48;;;;;;;95.83;39.37;;;;;;;;;;5008370;28;20285;-75
2020/12/06 01:59:14;;;;;;;98.67;39.37;;;;;;;;;;5009965;28;20323;-78
2020/12/06 02:01:40;;;;;;;98.60;38.00;;;;;;;;;;5004285;28;20268;-78
2020/12/06 02:04:07;;;;;;;98.77;38.87;;;;;;;;;;4993690;28;20572;-78
2020/12/06 02:06:34;;;;;;;92.93;39.10;;;;;;;;;;4992937;28;20280;-77
2020/12/06 02:09:00;;;;;;;91.07;37.50;;;;;;;;;;4991800;28;20352;-77
2020/12/06 02:11:30;;;;;;;96.30;38.37;;;;;;;;;;5006587;28;20261;-77
2020/12/06 02:13:56;;;;;;;86.47;35.80;;;;;;;;;;4997050;28;20766;-77
2020/12/06 02:16:24;;;;;;;85.73;38.47;;;;;;;;;;5010825;28;20272;-78
2020/12/06 02:18:51;;;;;;;95.73;39.60;;;;;;;;;;5011234;28;20721;-77
2020/12/06 02:21:17;;;;;;;85.93;36.90;;;;;;;;;;5010965;28;20319;-77
2020/12/06 02:23:47;;;;;;;96.30;39.43;;;;;;;;;;5003005;28;20298;-78
2020/12/06 02:26:13;;;;;;;89.23;39.57;;;;;;;;;;5010462;28;20876;-77
2020/12/06 02:28:40;;;;;;;93.90;40.00;;;;;;;;;;5010566;28;20309;-77
2020/12/06 02:31:10;;;;;;;89.77;38.10;;;;;;;;;;5010405;28;20272;-78
2020/12/06 02:33:37;;;;;;;90.37;39.03;;;;;;;;;;5012268;28;20322;-77
2020/12/06 02:36:03;;;;;;;84.63;37.70;;;;;;;;;;5006279;28;20276;-77
2020/12/06 02:38:29;;;;;;;84.50;37.23;;;;;;;;;;5010321;28;20284;-78
2020/12/06 02:40:55;;;;;;;91.67;37.17;;;;;;;;;;5004062;28;20269;-77
2020/12/06 02:43:21;;;;;;;90.80;37.33;;;;;;;;;;5011647;28;20817;-77
2020/12/06 02:45:47;;;;;;;99.23;38.97;;;;;;;;;;5011938;28;20253;-78
2020/12/06 02:48:13;;;;;;;94.20;38.00;;;;;;;;;;5011212;28;20287;-77
2020/12/06 02:50:39;;;;;;;88.60;38.00;;;;;;;;;;5002284;28;20748;-76
2020/12/06 02:53:06;;;;;;;84.63;34.83;;;;;;;;;;5006938;28;20348;-77
2020/12/06 02:55:32;;;;;;;95.50;37.50;;;;;;;;;;5010485;28;20304;-77
2020/12/06 02:57:58;;;;;;;85.30;35.53;;;;;;;;;;5009006;28;20927;-77
2020/12/06 03:00:26;;;;;;;96.63;38.97;;;;;;;;;;5010177;28;20296;-77
2020/12/06 03:02:52;;;;;;;87.67;39.53;;;;;;;;;;5010854;28;20268;-77
2020/12/06 03:05:18;;;;;;;104.10;39.53;;;;;;;;;;5011346;28;20257;-76
2020/12/06 03:07:44;;;;;;;100.23;40.50;;;;;;;;;;4994247;28;20269;-76
2020/12/06 03:10:10;;;;;;;98.87;39.67;;;;;;;;;;4998877;28;20314;-77
2020/12/06 03:12:36;;;;;;;114.27;41.90;;;;;;;;;;5009909;28;20257;-76
2020/12/06 03:15:02;;;;;;;114.97;44.10;;;;;;;;;;5010359;28;20257;-77
2020/12/06 03:17:29;;;;;;;129.30;42.93;;;;;;;;;;5005359;28;20388;-77
2020/12/06 03:19:55;;;;;;;115.87;43.73;;;;;;;;;;5011435;28;20265;-77
2020/12/06 03:22:22;;;;;;;218.60;50.40;;;;;;;;;;5011488;28;20661;-77
2020/12/06 03:24:48;;;;;;;194.77;48.23;;;;;;;;;;4999787;28;20355;-77
2020/12/06 03:27:14;;;;;;;159.40;49.13;;;;;;;;;;5004001;28;20314;-76
2020/12/06 03:29:40;;;;;;;150.10;45.57;;;;;;;;;;5009692;28;20367;-76
2020/12/06 03:32:06;;;;;;;132.00;42.33;;;;;;;;;;5010902;28;20348;-76
2020/12/06 03:34:32;;;;;;;95.67;39.67;;;;;;;;;;5009569;28;20280;-77
2020/12/06 03:36:58;;;;;;;99.80;37.50;;;;;;;;;;5009159;28;20288;-76
2020/12/06 03:39:24;;;;;;;106.57;37.67;;;;;;;;;;5009609;28;20276;-77
2020/12/06 03:41:50;;;;;;;102.50;39.57;;;;;;;;;;5010359;28;20495;-77
2020/12/06 03:44:16;;;;;;;96.87;38.37;;;;;;;;;;5010832;28;20261;-77
2020/12/06 03:46:42;;;;;;;92.20;38.80;;;;;;;;;;5003945;28;20266;-76
2020/12/06 03:49:08;;;;;;;92.60;38.50;;;;;;;;;;5010008;28;20277;-76
2020/12/06 03:51:35;;;;;;;92.13;36.60;;;;;;;;;;5010284;28;20340;-77
2020/12/06 03:54:01;;;;;;;99.03;41.07;;;;;;;;;;5009444;28;20265;-76
2020/12/06 03:56:27;;;;;;;104.17;40.87;;;;;;;;;;5002268;28;20262;-76
2020/12/06 03:58:53;;;;;;;110.10;38.30;;;;;;;;;;5005226;28;20289;-77
2020/12/06 04:01:19;;;;;;;116.27;39.67;;;;;;;;;;5010580;28;20340;-77
2020/12/06 04:03:46;;;;;;;222.37;47.43;;;;;;;;;;5002949;28;20257;-77
2020/12/06 04:06:12;;;;;;;302.23;58.40;;;;;;;;;;4995228;28;20273;-76
2020/12/06 04:08:38;;;;;;;253.70;48.27;;;;;;;;;;5007527;28;20292;-77
2020/12/06 04:11:06;;;;;;;423.80;62.93;;;;;;;;;;5009553;28;20680;-76
2020/12/06 04:13:32;;;;;;;106.40;41.10;;;;;;;;;;5010100;28;20275;-76
2020/12/06 04:15:59;;;;;;;110.73;38.43;;;;;;;;;;5009168;28;20261;-76
2020/12/06 04:18:25;;;;;;;117.13;38.33;;;;;;;;;;5008710;28;20289;-76
2020/12/06 04:20:54;;;;;;;144.67;43.43;;;;;;;;;;5008596;28;20833;-76
2020/12/06 04:23:20;;;;;;;118.67;43.27;;;;;;;;;;5006446;28;20269;-77
2020/12/06 04:25:46;;;;;;;115.93;42.27;;;;;;;;;;5006357;28;20274;-77
2020/12/06 04:28:12;;;;;;;119.30;41.13;;;;;;;;;;5005866;28;20277;-76
2020/12/06 04:30:38;;;;;;;97.60;39.17;;;;;;;;;;5010101;28;20276;-76
2020/12/06 04:33:04;;;;;;;110.20;40.40;;;;;;;;;;5014152;28;20272;-77
2020/12/06 04:35:30;;;;;;;100.03;41.27;;;;;;;;;;5009675;28;20618;-77
2020/12/06 04:37:56;;;;;;;102.80;39.53;;;;;;;;;;5013605;28;20285;-77
2020/12/06 04:40:23;;;;;;;106.20;40.63;;;;;;;;;;5013517;28;20280;-76
2020/12/06 04:42:49;;;;;;;121.40;42.53;;;;;;;;;;5012412;28;20261;-76
2020/12/06 04:45:15;;;;;;;95.13;39.63;;;;;;;;;;5012611;28;20348;-76
2020/12/06 04:47:56;;;;;;;89.23;37.77;;;;;;;;;;5013244;28;20261;-77
2020/12/06 04:50:36;;;;;;;81.40;37.40;;;;;;;;;;5004969;28;20273;-76
2020/12/06 04:53:04;;;;;;;82.83;38.03;;;;;;;;;;5008017;28;20378;-77
2020/12/06 04:55:31;;;;;;;99.30;40.53;;;;;;;;;;5013355;28;20277;-77
2020/12/06 04:57:58;;;;;;;91.10;36.47;;;;;;;;;;5011119;28;20288;-77
2020/12/06 05:00:31;;;;;;;97.23;38.07;;;;;;;;;;5013456;28;20284;-76
2020/12/06 05:02:58;;;;;;;88.73;36.93;;;;;;;;;;5012438;28;20265;-77
2020/12/06 05:05:27;;;;;;;89.20;38.60;;;;;;;;;;5012102;28;20277;-77
2020/12/06 05:07:53;;;;;;;83.23;38.87;;;;;;;;;;5012752;28;20271;-77
2020/12/06 05:10:19;;;;;;;102.17;39.37;;;;;;;;;;4998839;28;20392;-77
2020/12/06 05:12:45;;;;;;;98.30;41.40;;;;;;;;;;4999873;28;20264;-77
2020/12/06 05:15:11;;;;;;;92.70;37.33;;;;;;;;;;4993745;28;20826;-77
2020/12/06 05:17:38;;;;;;;93.77;37.03;;;;;;;;;;5006421;28;20286;-77
2020/12/06 05:20:10;;;;;;;95.17;37.53;;;;;;;;;;5012882;28;20351;-76
2020/12/06 05:22:37;;;;;;;93.27;37.03;;;;;;;;;;5013361;28;20660;-77
2020/12/06 05:25:07;;;;;;;87.23;38.57;;;;;;;;;;5011590;28;20276;-76
2020/12/06 05:27:33;;;;;;;88.30;37.63;;;;;;;;;;5011815;28;21102;-76
2020/12/06 05:29:59;;;;;;;84.97;36.53;;;;;;;;;;5003388;28;20287;-76
2020/12/06 05:32:28;;;;;;;170.83;39.37;;;;;;;;;;5008189;28;20275;-77
2020/12/06 05:34:55;;;;;;;100.73;35.13;;;;;;;;;;5011749;28;20264;-77
2020/12/06 05:37:21;;;;;;;118.10;35.30;;;;;;;;;;5011290;28;20288;-77
2020/12/06 05:39:47;;;;;;;281.43;41.30;;;;;;;;;;5012798;28;20300;-77
2020/12/06 05:42:14;;;;;;;320.93;48.10;;;;;;;;;;5004857;28;20659;-77
2020/12/06 05:44:41;;;;;;;166.47;39.33;;;;;;;;;;5011291;28;20334;-77
2020/12/06 05:47:13;;;;;;;210.57;41.63;;;;;;;;;;5010165;28;20277;-77
2020/12/06 05:49:40;;;;;;;223.07;44.60;;;;;;;;;;5011162;28;20289;-76
2020/12/06 05:52:07;;;;;;;222.10;42.10;;;;;;;;;;5011614;28;20033;-77
2020/12/06 05:54:33;;;;;;;213.27;40.93;;;;;;;;;;5011172;28;20273;-76
2020/12/06 05:56:59;;;;;;;294.13;52.17;;;;;;;;;;5011133;28;20288;-77
2020/12/06 05:59:25;;;;;;;136.27;38.77;;;;;;;;;;5012127;28;20265;-77
2020/12/06 06:01:52;;;;;;;202.90;45.40;;;;;;;;;;4991604;28;20296;-76
2020/12/06 06:04:20;;;;;;;226.80;41.33;;;;;;;;;;5008642;28;20280;-77
2020/12/06 06:06:48;;;;;;;207.63;41.67;;;;;;;;;;5002000;28;20267;-77
2020/12/06 06:09:15;;;;;;;373.50;46.97;;;;;;;;;;5022167;28;20268;-77
2020/12/06 06:11:46;;;;;;;405.97;44.80;;;;;;;;;;5012235;28;20245;-76
2020/12/06 06:14:14;;;;;;;518.47;68.63;;;;;;;;;;5001074;28;20284;-79
2020/12/06 06:16:40;;;;;;;353.40;40.57;;;;;;;;;;5005504;28;20269;-77
2020/12/06 06:19:07;;;;;;;326.93;43.93;;;;;;;;;;4991662;28;20348;-77
2020/12/06 06:21:34;;;;;;;381.30;50.50;;;;;;;;;;5005654;28;20380;-77
2020/12/06 06:24:02;;;;;;;224.57;40.23;;;;;;;;;;5027354;28;20264;-77
2020/12/06 06:26:30;;;;;;;448.23;61.07;;;;;;;;;;5009918;28;20792;-76
2020/12/06 06:28:56;;;;;;;387.37;61.20;;;;;;;;;;5010514;28;20273;-77
2020/12/06 06:31:22;;;;;;;560.80;72.77;;;;;;;;;;5011666;28;20323;-77
2020/12/06 06:33:49;;;;;;;173.67;39.67;;;;;;;;;;5011698;28;20275;-77
2020/12/06 06:36:19;;;;;;;355.60;49.00;;;;;;;;;;5007020;28;20277;-77
2020/12/06 06:38:45;;;;;;;244.00;46.37;;;;;;;;;;5011666;28;20363;-77
2020/12/06 06:41:12;;;;;;;382.57;55.03;;;;;;;;;;5000497;28;20617;-76
2020/12/06 06:43:39;;;;;;;276.17;48.70;;;;;;;;;;5004872;28;20280;-76
2020/12/06 06:46:13;;;;;;;286.67;54.37;;;;;;;;;;5011385;28;20744;-77
2020/12/06 06:48:39;;;;;;;291.83;50.40;;;;;;;;;;5005816;28;20293;-78
2020/12/06 06:51:06;;;;;;;243.93;44.93;;;;;;;;;;5007622;28;20368;-77
2020/12/06 06:53:35;;;;;;;164.60;42.60;;;;;;;;;;5008900;28;20265;-76
2020/12/06 06:56:01;;;;;;;321.57;54.50;;;;;;;;;;5006203;28;20297;-77
2020/12/06 06:58:29;;;;;;;284.37;47.33;;;;;;;;;;5005259;28;20301;-75
2020/12/06 07:01:34;;;;;;;227.80;44.47;;;;;;;;;;4996730;28;20257;-77
2020/12/06 07:04:00;;;;;;;187.67;44.30;;;;;;;;;;4970301;28;20273;-77
2020/12/06 07:06:46;;;;;;;262.80;47.47;;;;;;;;;;4997919;28;20269;-76
2020/12/06 07:09:12;;;;;;;154.07;42.10;;;;;;;;;;4988521;28;21176;-77
2020/12/06 07:11:39;;;;;;;187.77;45.03;;;;;;;;;;4991669;28;20615;-76
2020/12/06 07:14:05;;;;;;;219.10;46.87;;;;;;;;;;5005435;28;20278;-77
2020/12/06 07:16:32;;;;;;;240.80;48.57;;;;;;;;;;4993728;28;20272;-76
2020/12/06 07:18:59;;;;;;;184.70;48.03;;;;;;;;;;5009396;28;20277;-76
2020/12/06 07:21:32;;;;;;;229.67;52.10;;;;;;;;;;5004554;28;20300;-77
2020/12/06 07:23:59;;;;;;;169.15;46.85;;;;;;;;;;4996840;28;20258;-77
2020/12/06 07:26:25;;;;;;;308.97;53.90;;;;;;;;;;5003260;28;20029;-78
2020/12/06 07:28:51;;;;;;;195.73;51.50;;;;;;;;;;5004306;28;20289;-76
2020/12/06 07:31:18;;;;;;;248.23;54.43;;;;;;;;;;5006689;28;20764;-76
2020/12/06 07:33:44;;;;;;;144.23;44.57;;;;;;;;;;4994653;28;20265;-77
2020/12/06 07:36:12;;;;;;;164.37;49.87;;;;;;;;;;5009451;28;20304;-76
2020/12/06 07:38:38;;;;;;;199.00;52.03;;;;;;;;;;5010597;28;20273;-77
2020/12/06 07:41:04;;;;;;;222.53;54.93;;;;;;;;;;5010749;28;20259;-77
2020/12/06 07:43:34;;;;;;;161.47;42.20;;;;;;;;;;5010006;28;20269;-76
2020/12/06 07:46:17;;;;;;;186.97;46.77;;;;;;;;;;5009352;28;20276;-77
2020/12/06 07:48:43;;;;;;;167.35;46.22;;;;;;;;;;5000787;28;20294;-77
2020/12/06 07:51:10;;;;;;;171.60;46.83;;;;;;;;;;5009891;28;20056;-77
2020/12/06 07:53:50;;;;;;;148.80;42.43;;;;;;;;;;5003305;28;20351;-77
2020/12/06 07:56:23;;;;;;;151.10;42.07;;;;;;;;;;5003059;28;20286;-77
2020/12/06 07:59:13;;;;;;;206.32;46.05;;;;;;;;;;5024457;28;20277;-76
2020/12/06 08:01:42;;;;;;;146.93;38.90;;;;;;;;;;4999965;28;20448;-77
2020/12/06 08:04:10;;;;;;;207.93;43.17;;;;;;;;;;5005698;28;20356;-76
2020/12/06 08:06:36;;;;;;;193.53;38.07;;;;;;;;;;5011671;28;20268;-77
2020/12/06 08:09:03;;;;;;;162.70;39.30;;;;;;;;;;5014546;28;20315;-77
2020/12/06 08:11:35;;;;;;;240.10;44.97;;;;;;;;;;5012969;28;20277;-76
2020/12/06 08:14:01;;;;;;;223.53;44.63;;;;;;;;;;4994685;28;20253;-77
2020/12/06 08:16:27;;;;;;;327.70;50.57;;;;;;;;;;5010465;28;20304;-77
2020/12/06 08:19:00;;;;;;;263.13;44.67;;;;;;;;;;5014238;28;20264;-77
2020/12/06 08:21:42;;;;;;;272.85;45.53;;;;;;;;;;4994016;28;20625;-78
2020/12/06 08:24:24;;;;;;;178.00;37.60;;;;;;;;;;4990991;28;20101;-76
2020/12/06 08:26:51;;;;;;;215.17;37.73;;;;;;;;;;4993717;28;20320;-77
2020/12/06 08:29:17;;;;;;;207.03;37.67;;;;;;;;;;5005616;28;20274;-76
2020/12/06 08:31:45;;;;;;;211.73;37.00;;;;;;;;;;5002426;28;20316;-77
2020/12/06 08:34:17;;;;;;;263.73;42.77;;;;;;;;;;5010023;28;20265;-76
2020/12/06 08:36:44;;;;;;;224.23;39.63;;;;;;;;;;5009543;28;20272;-77
2020/12/06 08:39:16;;;;;;;231.07;40.60;;;;;;;;;;5003775;28;20392;-77
2020/12/06 08:41:42;;;;;;;321.77;50.20;;;;;;;;;;5010196;28;20269;-77
2020/12/06 08:44:08;;;;;;;185.10;39.37;;;;;;;;;;5009926;28;20265;-77
2020/12/06 08:46:34;;;;;;;264.87;40.77;;;;;;;;;;5009379;28;20273;-77
2020/12/06 08:49:02;;;;;;;289.97;44.87;;;;;;;;;;4996763;28;20308;-77
2020/12/06 08:51:36;;;;;;;281.73;42.83;;;;;;;;;;5009238;28;20272;-77
2020/12/06 08:54:09;;;;;;;348.43;46.80;;;;;;;;;;5009976;28;20261;-77
2020/12/06 08:56:36;;;;;;;309.92;46.42;;;;;;;;;;5010345;28;20261;-77
2020/12/06 08:59:10;;;;;;;381.13;51.23;;;;;;;;;;5002607;28;20164;-76
2020/12/06 09:01:48;;;;;;;361.67;50.33;;;;;;;;;;5011267;28;20253;-77
2020/12/06 09:04:18;;;;;;;374.57;50.90;;;;;;;;;;5003518;28;20027;-78
2020/12/06 09:06:44;;;;;;;344.33;44.47;;;;;;;;;;5009273;28;20272;-78
2020/12/06 09:09:11;;;;;;;323.27;44.27;;;;;;;;;;5011174;28;20700;-78
2020/12/06 09:11:37;;;;;;;293.97;43.60;;;;;;;;;;5010779;28;20352;-77
2020/12/06 09:14:04;;;;;;;323.40;47.43;;;;;;;;;;5011204;28;20386;-77
2020/12/06 09:16:30;;;;;;;385.70;51.67;;;;;;;;;;5012151;28;20264;-77
2020/12/06 09:18:57;;;;;;;371.70;46.13;;;;;;;;;;5012086;28;20319;-77
2020/12/06 09:21:24;;;;;;;316.73;43.47;;;;;;;;;;5012670;28;20727;-77
2020/12/06 09:23:50;;;;;;;259.40;36.70;;;;;;;;;;5013210;28;20315;-77
2020/12/06 09:26:16;;;;;;;423.37;47.97;;;;;;;;;;5011302;28;20261;-77
2020/12/06 09:28:42;;;;;;;301.13;39.90;;;;;;;;;;5009044;28;20277;-77
2020/12/06 09:31:09;;;;;;;356.83;42.93;;;;;;;;;;5009527;28;20763;-78
2020/12/06 09:33:36;;;;;;;310.63;40.17;;;;;;;;;;5009243;28;20884;-77
2020/12/06 09:36:04;;;;;;;419.20;50.40;;;;;;;;;;4991113;28;20273;-77
2020/12/06 09:38:30;;;;;;;224.77;33.43;;;;;;;;;;5008715;28;20866;-77
2020/12/06 09:40:56;;;;;;;419.97;48.00;;;;;;;;;;5009681;28;20660;-78
2020/12/06 09:43:23;;;;;;;208.30;30.20;;;;;;;;;;5004615;28;20269;-77
2020/12/06 09:45:49;;;;;;;346.70;37.93;;;;;;;;;;5003316;28;20260;-77
2020/12/06 09:48:15;;;;;;;295.93;41.77;;;;;;;;;;5008515;28;20287;-77
2020/12/06 09:50:41;;;;;;;203.27;36.27;;;;;;;;;;4989450;28;20269;-77
2020/12/06 09:53:09;;;;;;;156.37;27.70;;;;;;;;;;4999423;28;20721;-77
2020/12/06 09:55:37;;;;;;;135.13;25.83;;;;;;;;;;5008432;28;20327;-77
2020/12/06 09:58:03;;;;;;;125.10;24.13;;;;;;;;;;5003209;28;20372;-77
2020/12/06 10:00:29;;;;;;;199.47;34.67;;;;;;;;;;4993102;28;20274;-77
2020/12/06 10:02:56;;;;;;;157.00;29.63;;;;;;;;;;4989450;28;20269;-77
2020/12/06 10:05:25;;;;;;;155.17;27.93;;;;;;;;;;5002281;28;20328;-77
2020/12/06 10:07:52;;;;;;;207.30;32.80;;;;;;;;;;4995020;28;20265;-77
2020/12/06 10:10:18;;;;;;;201.03;30.93;;;;;;;;;;4989576;28;20266;-77
2020/12/06 10:12:45;;;;;;;73.40;23.27;;;;;;;;;;5006515;28;21077;-78
2020/12/06 10:15:11;;;;;;;105.13;26.80;;;;;;;;;;5005736;28;20262;-78
2020/12/06 10:17:38;;;;;;;61.20;22.20;;;;;;;;;;4998832;28;20355;-78
2020/12/06 10:20:05;;;;;;;65.17;23.03;;;;;;;;;;5011154;28;20295;-77
2020/12/06 10:22:41;;;;;;;73.93;25.37;;;;;;;;;;5011360;28;20315;-78
2020/12/06 10:25:07;;;;;;;81.77;24.03;;;;;;;;;;4998195;28;20291;-77
2020/12/06 10:27:33;;;;;;;76.20;24.87;;;;;;;;;;5005996;28;20374;-79
2020/12/06 10:29:59;;;;;;;72.07;21.93;;;;;;;;;;5018931;28;20277;-78
2020/12/06 10:32:25;;;;;;;64.37;23.27;;;;;;;;;;5005800;28;20268;-77
2020/12/06 10:34:51;;;;;;;61.57;22.77;;;;;;;;;;4999206;28;20273;-77
2020/12/06 10:37:18;;;;;;;55.63;22.57;;;;;;;;;;5006364;28;20338;-77
2020/12/06 10:39:45;;;;;;;62.87;23.13;;;;;;;;;;5005736;28;20264;-77
2020/12/06 10:42:11;;;;;;;57.63;21.10;;;;;;;;;;5007377;28;20273;-77
2020/12/06 10:44:37;;;;;;;70.60;23.83;;;;;;;;;;4995828;28;20281;-77
2020/12/06 10:47:03;;;;;;;68.67;25.20;;;;;;;;;;5011503;28;20273;-78
2020/12/06 10:49:30;;;;;;;69.27;24.97;;;;;;;;;;5008537;28;20352;-78
2020/12/06 10:51:58;;;;;;;63.60;23.47;;;;;;;;;;5014756;28;20260;-77
2020/12/06 10:54:26;;;;;;;51.73;20.40;;;;;;;;;;5011918;28;20293;-78
2020/12/06 10:56:54;;;;;;;59.00;21.27;;;;;;;;;;5007143;28;20261;-77
2020/12/06 10:59:20;;;;;;;54.30;21.70;;;;;;;;;;5010434;28;20368;-77
2020/12/06 11:01:48;;;;;;;46.77;19.87;;;;;;;;;;5011049;28;20287;-78
2020/12/06 11:04:14;;;;;;;48.77;19.40;;;;;;;;;;5011974;28;20268;-77
2020/12/06 11:06:40;;;;;;;50.83;20.37;;;;;;;;;;5001404;28;20335;-77
2020/12/06 11:09:06;;;;;;;52.60;20.23;;;;;;;;;;5010426;28;20670;-77
2020/12/06 11:11:34;;;;;;;55.70;22.00;;;;;;;;;;5011298;28;20257;-77
2020/12/06 11:14:05;;;;;;;55.70;20.90;;;;;;;;;;5011470;28;20276;-77
2020/12/06 11:16:36;;;;;;;46.30;18.90;;;;;;;;;;5009518;28;20695;-77
2020/12/06 11:19:02;;;;;;;56.23;23.13;;;;;;;;;;5010178;28;20276;-76
2020/12/06 11:21:28;;;;;;;46.37;19.37;;;;;;;;;;5010812;28;20264;-77
2020/12/06 11:23:58;;;;;;;48.30;21.47;;;;;;;;;;5009791;28;20025;-77
2020/12/06 11:26:24;;;;;;;56.07;21.40;;;;;;;;;;5003154;28;20697;-77
2020/12/06 11:28:56;;;;;;;49.43;23.33;;;;;;;;;;5000902;28;20281;-78
2020/12/06 11:31:22;;;;;;;45.53;21.50;;;;;;;;;;5004382;28;20641;-78
2020/12/06 11:33:51;;;;;;;53.90;23.17;;;;;;;;;;5019145;28;20276;-77
2020/12/06 11:36:17;;;;;;;62.03;31.00;;;;;;;;;;5008757;28;20042;-77
2020/12/06 11:38:44;;;;;;;49.63;22.87;;;;;;;;;;5010334;28;20026;-77
2020/12/06 11:41:10;;;;;;;57.93;25.53;;;;;;;;;;4996347;28;20327;-76
2020/12/06 11:43:36;;;;;;;52.53;25.80;;;;;;;;;;5009748;28;20261;-76
2020/12/06 11:46:02;;;;;;;45.63;21.23;;;;;;;;;;5010670;28;20030;-77
2020/12/06 11:48:28;;;;;;;51.33;26.87;;;;;;;;;;5007370;28;20038;-77
2020/12/06 11:50:54;;;;;;;44.33;21.47;;;;;;;;;;5009816;28;20034;-78
2020/12/06 11:53:20;;;;;;;48.83;24.10;;;;;;;;;;5011010;28;20034;-76
2020/12/06 11:55:47;;;;;;;59.33;27.57;;;;;;;;;;5009678;28;20670;-79
2020/12/06 11:58:13;;;;;;;47.27;22.80;;;;;;;;;;5009061;28;20511;-77
2020/12/06 12:00:39;;;;;;;48.43;22.63;;;;;;;;;;5006395;28;20030;-78
2020/12/06 12:03:05;;;;;;;50.63;22.90;;;;;;;;;;4995159;28;20491;-77
2020/12/06 12:05:31;;;;;;;43.03;19.20;;;;;;;;;;5010043;28;20130;-77
2020/12/06 12:07:57;;;;;;;34.97;16.90;;;;;;;;;;5010080;28;20057;-77
2020/12/06 12:10:26;;;;;;;42.87;20.70;;;;;;;;;;5011141;28;20881;-77
2020/12/06 12:12:52;;;;;;;61.53;27.47;;;;;;;;;;5010628;28;20775;-77
2020/12/06 12:15:19;;;;;;;39.30;18.20;;;;;;;;;;5010556;28;20056;-77
2020/12/06 12:17:45;;;;;;;59.87;27.13;;;;;;;;;;5006395;28;20292;-77
2020/12/06 12:20:12;;;;;;;51.17;25.43;;;;;;;;;;5006587;28;20038;-78
2020/12/06 12:22:38;;;;;;;45.63;20.60;;;;;;;;;;5006658;28;20113;-77
2020/12/06 12:25:04;;;;;;;53.83;23.93;;;;;;;;;;5006028;28;20064;-77
2020/12/06 12:27:31;;;;;;;63.63;27.13;;;;;;;;;;5004844;28;20029;-77
2020/12/06 12:29:57;;;;;;;57.63;24.80;;;;;;;;;;5005042;28;20277;-77
2020/12/06 12:32:23;;;;;;;72.50;31.67;;;;;;;;;;5000288;28;20037;-79
2020/12/06 12:34:51;;;;;;;63.27;26.00;;;;;;;;;;5006503;28;20038;-77
2020/12/06 12:37:17;;;;;;;65.30;29.83;;;;;;;;;;5004536;28;20045;-78
2020/12/06 12:39:43;;;;;;;56.20;24.90;;;;;;;;;;5002503;28;20040;-76
2020/12/06 12:42:11;;;;;;;71.60;33.00;;;;;;;;;;5005993;28;20110;-77
2020/12/06 12:44:38;;;;;;;63.03;24.37;;;;;;;;;;5003983;28;20558;-76
2020/12/06 12:47:04;;;;;;;51.37;22.23;;;;;;;;;;5006811;28;20044;-77
2020/12/06 12:49:30;;;;;;;53.63;20.57;;;;;;;;;;5010703;28;20269;-76
2020/12/06 12:51:57;;;;;;;55.33;20.77;;;;;;;;;;5002408;28;20052;-77
2020/12/06 12:54:23;;;;;;;81.70;28.87;;;;;;;;;;5010714;28;20025;-76
2020/12/06 12:56:49;;;;;;;50.03;20.03;;;;;;;;;;5010740;28;20022;-78
2020/12/06 12:59:16;;;;;;;51.73;19.10;;;;;;;;;;5011616;28;20260;-78
2020/12/06 13:01:42;;;;;;;54.20;20.40;;;;;;;;;;5009518;28;20030;-77
2020/12/06 13:04:08;;;;;;;81.77;24.17;;;;;;;;;;5008082;28;20390;-77
2020/12/06 13:06:34;;;;;;;114.37;25.10;;;;;;;;;;5009847;28;20150;-78
2020/12/06 13:09:01;;;;;;;129.60;25.20;;;;;;;;;;5012237;28;20436;-77
2020/12/06 13:11:28;;;;;;;144.20;31.10;;;;;;;;;;5013008;28;20038;-78
2020/12/06 13:13:59;;;;;;;85.20;23.13;;;;;;;;;;5015627;28;20480;-77
2020/12/06 13:16:25;;;;;;;115.20;26.53;;;;;;;;;;5016548;28;20025;-78
2020/12/06 13:18:51;;;;;;;210.70;31.23;;;;;;;;;;5014705;28;20108;-78
2020/12/06 13:21:17;;;;;;;237.20;30.80;;;;;;;;;;5013567;28;20036;-79
2020/12/06 13:23:45;;;;;;;141.73;23.23;;;;;;;;;;5008005;28;20382;-78
2020/12/06 13:26:11;;;;;;;100.83;21.47;;;;;;;;;;5012545;28;20404;-78
2020/12/06 13:28:37;;;;;;;231.20;25.37;;;;;;;;;;5011874;28;20467;-78
2020/12/06 13:31:03;;;;;;;356.27;33.37;;;;;;;;;;5012946;28;20409;-78
2020/12/06 13:33:30;;;;;;;284.27;31.63;;;;;;;;;;5009785;28;20030;-79
2020/12/06 13:35:56;;;;;;;267.33;29.70;;;;;;;;;;5011780;28;20041;-77
2020/12/06 13:38:22;;;;;;;100.30;19.73;;;;;;;;;;5012128;28;20037;-78
2020/12/06 13:40:48;;;;;;;254.10;28.63;;;;;;;;;;5011669;28;20048;-78
2020/12/06 13:43:14;;;;;;;367.23;35.00;;;;;;;;;;5011795;28;20393;-78
2020/12/06 13:45:44;;;;;;;308.07;28.53;;;;;;;;;;5012222;28;20177;-78
2020/12/06 13:48:11;;;;;;;257.63;30.00;;;;;;;;;;5005269;28;20031;-78
2020/12/06 13:50:38;;;;;;;453.30;39.50;;;;;;;;;;5007425;28;20125;-78
2020/12/06 13:53:04;;;;;;;433.73;40.23;;;;;;;;;;5010472;28;20033;-79
2020/12/06 13:55:32;;;;;;;189.47;25.77;;;;;;;;;;5010233;28;20076;-80
2020/12/06 13:57:59;;;;;;;231.70;23.00;;;;;;;;;;5006964;28;20033;-78
2020/12/06 14:00:25;;;;;;;436.83;38.03;;;;;;;;;;5009609;28;20033;-78
2020/12/06 14:02:52;;;;;;;273.97;34.30;;;;;;;;;;5008340;28;20431;-78
2020/12/06 14:05:24;;;;;;;268.20;31.73;;;;;;;;;;5010570;28;20022;-80
2020/12/06 14:07:50;;;;;;;291.87;31.00;;;;;;;;;;5008798;28;20033;-78
2020/12/06 14:10:16;;;;;;;408.03;65.50;;;;;;;;;;5008930;28;20326;-79
2020/12/06 14:12:46;;;;;;;262.57;32.80;;;;;;;;;;5009924;28;20488;-78